sensor_id;sensor_type;location;lat;lon;timestamp;P1;durP1;ratioP1;P2;durP2;ratioP2
13032;SDS011;6583;42.632;23.298;2022-11-20T00:00:39;2.13;;;1.30;;
13032;SDS011;6583;42.632;23.298;2022-11-20T00:03:05;1.48;;;1.38;;
13032;SDS011;6583;42.632;23.298;2022-11-20T00:05:32;3.20;;;1.40;;
13032;SDS011;6583;42.632;23.298;2022-11-20T00:07:59;3.55;;;1.58;;
13032;SDS011;6583;42.632;23.298;2022-11-20T00:10:25;3.05;;;1.50;;
13032;SDS011;6583;42.632;23.298;2022-11-20T00:12:54;3.00;;;1.30;;
13032;SDS011;6583;42.632;23.298;2022-11-20T00:15:20;2.50;;;1.20;;
13032;SDS011;6583;42.632;23.298;2022-11-20T00:17:47;3.58;;;1.40;;
13032;SDS011;6583;42.632;23.298;2022-11-20T00:20:14;2.85;;;1.30;;
13032;SDS011;6583;42.632;23.298;2022-11-20T00:22:41;2.35;;;1.30;;
13032;SDS011;6583;42.632;23.298;2022-11-20T00:25:07;2.55;;;1.48;;
13032;SDS011;6583;42.632;23.298;2022-11-20T00:27:35;2.45;;;1.17;;
13032;SDS011;6583;42.632;23.298;2022-11-20T00:30:03;2.33;;;1.20;;
13032;SDS011;6583;42.632;23.298;2022-11-20T00:32:30;2.88;;;1.48;;
13032;SDS011;6583;42.632;23.298;2022-11-20T00:34:57;2.22;;;1.10;;
13032;SDS011;6583;42.632;23.298;2022-11-20T00:37:23;4.20;;;1.10;;
13032;SDS011;6583;42.632;23.298;2022-11-20T00:39:50;2.47;;;1.20;;
13032;SDS011;6583;42.632;23.298;2022-11-20T00:42:17;2.38;;;1.30;;
13032;SDS011;6583;42.632;23.298;2022-11-20T00:44:43;4.00;;;1.20;;
13032;SDS011;6583;42.632;23.298;2022-11-20T00:47:11;1.40;;;1.10;;
13032;SDS011;6583;42.632;23.298;2022-11-20T00:49:38;1.25;;;0.95;;
13032;SDS011;6583;42.632;23.298;2022-11-20T00:52:05;2.17;;;1.20;;
13032;SDS011;6583;42.632;23.298;2022-11-20T00:54:31;2.75;;;1.42;;
13032;SDS011;6583;42.632;23.298;2022-11-20T00:56:58;2.05;;;1.17;;
13032;SDS011;6583;42.632;23.298;2022-11-20T00:59:25;1.17;;;1.08;;
13032;SDS011;6583;42.632;23.298;2022-11-20T01:01:51;1.60;;;0.98;;
13032;SDS011;6583;42.632;23.298;2022-11-20T01:04:19;0.88;;;0.65;;
13032;SDS011;6583;42.632;23.298;2022-11-20T01:06:46;1.75;;;1.00;;
13032;SDS011;6583;42.632;23.298;2022-11-20T01:09:13;2.22;;;0.90;;
13032;SDS011;6583;42.632;23.298;2022-11-20T01:11:41;1.30;;;0.80;;
13032;SDS011;6583;42.632;23.298;2022-11-20T01:14:09;5.13;;;1.08;;
13032;SDS011;6583;42.632;23.298;2022-11-20T01:16:40;1.73;;;1.27;;
13032;SDS011;6583;42.632;23.298;2022-11-20T01:19:09;2.40;;;0.90;;
13032;SDS011;6583;42.632;23.298;2022-11-20T01:21:39;1.95;;;1.02;;
13032;SDS011;6583;42.632;23.298;2022-11-20T01:24:09;1.40;;;0.95;;
13032;SDS011;6583;42.632;23.298;2022-11-20T01:26:38;1.77;;;0.90;;
13032;SDS011;6583;42.632;23.298;2022-11-20T01:29:06;1.63;;;1.05;;
13032;SDS011;6583;42.632;23.298;2022-11-20T01:31:35;3.22;;;1.05;;
13032;SDS011;6583;42.632;23.298;2022-11-20T01:34:03;1.38;;;1.00;;
13032;SDS011;6583;42.632;23.298;2022-11-20T01:36:31;2.05;;;1.02;;
13032;SDS011;6583;42.632;23.298;2022-11-20T01:39:03;1.60;;;0.98;;
13032;SDS011;6583;42.632;23.298;2022-11-20T01:41:32;2.00;;;1.00;;
13032;SDS011;6583;42.632;23.298;2022-11-20T01:44:18;1.30;;;0.90;;
13032;SDS011;6583;42.632;23.298;2022-11-20T01:46:49;2.05;;;1.00;;
13032;SDS011;6583;42.632;23.298;2022-11-20T01:49:23;0.95;;;0.90;;
13032;SDS011;6583;42.632;23.298;2022-11-20T01:51:53;1.95;;;1.00;;
13032;SDS011;6583;42.632;23.298;2022-11-20T01:54:25;1.42;;;0.80;;
13032;SDS011;6583;42.632;23.298;2022-11-20T01:56:57;1.17;;;0.80;;
13032;SDS011;6583;42.632;23.298;2022-11-20T01:59:25;2.60;;;0.90;;
13032;SDS011;6583;42.632;23.298;2022-11-20T02:01:54;2.60;;;0.88;;
13032;SDS011;6583;42.632;23.298;2022-11-20T02:04:21;1.60;;;0.90;;
13032;SDS011;6583;42.632;23.298;2022-11-20T02:06:49;1.52;;;0.85;;
13032;SDS011;6583;42.632;23.298;2022-11-20T02:09:19;2.03;;;1.05;;
13032;SDS011;6583;42.632;23.298;2022-11-20T02:11:47;1.30;;;0.90;;
13032;SDS011;6583;42.632;23.298;2022-11-20T02:14:14;1.75;;;0.80;;
13032;SDS011;6583;42.632;23.298;2022-11-20T02:16:43;1.42;;;1.00;;
13032;SDS011;6583;42.632;23.298;2022-11-20T02:19:14;0.98;;;0.88;;
13032;SDS011;6583;42.632;23.298;2022-11-20T02:21:49;1.60;;;0.90;;
13032;SDS011;6583;42.632;23.298;2022-11-20T02:24:24;2.75;;;0.98;;
13032;SDS011;6583;42.632;23.298;2022-11-20T02:26:51;3.90;;;0.98;;
13032;SDS011;6583;42.632;23.298;2022-11-20T02:29:22;1.17;;;0.80;;
13032;SDS011;6583;42.632;23.298;2022-11-20T02:31:52;1.52;;;0.93;;
13032;SDS011;6583;42.632;23.298;2022-11-20T02:34:21;2.67;;;0.80;;
13032;SDS011;6583;42.632;23.298;2022-11-20T02:36:48;2.40;;;1.00;;
13032;SDS011;6583;42.632;23.298;2022-11-20T02:39:17;1.30;;;1.05;;
13032;SDS011;6583;42.632;23.298;2022-11-20T02:41:48;1.63;;;0.77;;
13032;SDS011;6583;42.632;23.298;2022-11-20T02:44:14;3.15;;;1.15;;
13032;SDS011;6583;42.632;23.298;2022-11-20T02:46:41;3.35;;;1.10;;
13032;SDS011;6583;42.632;23.298;2022-11-20T02:49:08;3.35;;;0.98;;
13032;SDS011;6583;42.632;23.298;2022-11-20T02:51:34;1.90;;;1.00;;
13032;SDS011;6583;42.632;23.298;2022-11-20T02:54:01;1.95;;;0.95;;
13032;SDS011;6583;42.632;23.298;2022-11-20T02:56:28;4.53;;;1.17;;
13032;SDS011;6583;42.632;23.298;2022-11-20T02:58:56;2.22;;;1.10;;
13032;SDS011;6583;42.632;23.298;2022-11-20T03:01:23;1.45;;;1.17;;
13032;SDS011;6583;42.632;23.298;2022-11-20T03:03:49;3.53;;;1.08;;
13032;SDS011;6583;42.632;23.298;2022-11-20T03:06:19;2.03;;;1.30;;
13032;SDS011;6583;42.632;23.298;2022-11-20T03:08:45;1.83;;;1.30;;
13032;SDS011;6583;42.632;23.298;2022-11-20T03:11:12;1.75;;;1.48;;
13032;SDS011;6583;42.632;23.298;2022-11-20T03:13:39;3.17;;;1.40;;
13032;SDS011;6583;42.632;23.298;2022-11-20T03:16:08;1.67;;;1.30;;
13032;SDS011;6583;42.632;23.298;2022-11-20T03:18:36;2.45;;;1.17;;
13032;SDS011;6583;42.632;23.298;2022-11-20T03:21:03;2.45;;;1.15;;
13032;SDS011;6583;42.632;23.298;2022-11-20T03:23:31;2.05;;;1.05;;
13032;SDS011;6583;42.632;23.298;2022-11-20T03:26:08;1.52;;;1.10;;
13032;SDS011;6583;42.632;23.298;2022-11-20T03:28:35;1.25;;;1.00;;
13032;SDS011;6583;42.632;23.298;2022-11-20T03:31:04;1.30;;;1.00;;
13032;SDS011;6583;42.632;23.298;2022-11-20T03:33:34;1.23;;;1.10;;
13032;SDS011;6583;42.632;23.298;2022-11-20T03:36:01;3.28;;;1.48;;
13032;SDS011;6583;42.632;23.298;2022-11-20T03:38:29;2.00;;;1.13;;
13032;SDS011;6583;42.632;23.298;2022-11-20T03:40:58;0.90;;;0.90;;
13032;SDS011;6583;42.632;23.298;2022-11-20T03:43:26;2.78;;;0.88;;
13032;SDS011;6583;42.632;23.298;2022-11-20T03:45:53;1.95;;;0.80;;
13032;SDS011;6583;42.632;23.298;2022-11-20T03:48:20;1.40;;;0.90;;
13032;SDS011;6583;42.632;23.298;2022-11-20T03:50:48;2.20;;;1.20;;
13032;SDS011;6583;42.632;23.298;2022-11-20T03:53:15;1.98;;;1.08;;
13032;SDS011;6583;42.632;23.298;2022-11-20T03:55:42;2.45;;;1.13;;
13032;SDS011;6583;42.632;23.298;2022-11-20T03:58:09;2.15;;;1.25;;
13032;SDS011;6583;42.632;23.298;2022-11-20T04:00:36;4.70;;;1.20;;
13032;SDS011;6583;42.632;23.298;2022-11-20T04:03:02;3.00;;;1.10;;
13032;SDS011;6583;42.632;23.298;2022-11-20T04:05:29;1.60;;;0.90;;
13032;SDS011;6583;42.632;23.298;2022-11-20T04:07:57;3.27;;;1.20;;
13032;SDS011;6583;42.632;23.298;2022-11-20T04:10:24;1.27;;;0.98;;
13032;SDS011;6583;42.632;23.298;2022-11-20T04:12:50;2.67;;;1.20;;
13032;SDS011;6583;42.632;23.298;2022-11-20T04:15:17;1.45;;;0.90;;
13032;SDS011;6583;42.632;23.298;2022-11-20T04:17:44;1.67;;;1.20;;
13032;SDS011;6583;42.632;23.298;2022-11-20T04:20:10;1.33;;;0.73;;
13032;SDS011;6583;42.632;23.298;2022-11-20T04:22:37;2.70;;;0.98;;
13032;SDS011;6583;42.632;23.298;2022-11-20T04:25:06;3.03;;;1.00;;
13032;SDS011;6583;42.632;23.298;2022-11-20T04:27:33;2.20;;;0.90;;
13032;SDS011;6583;42.632;23.298;2022-11-20T04:30:00;2.85;;;0.82;;
13032;SDS011;6583;42.632;23.298;2022-11-20T04:32:26;1.30;;;1.08;;
13032;SDS011;6583;42.632;23.298;2022-11-20T04:34:53;2.10;;;0.90;;
13032;SDS011;6583;42.632;23.298;2022-11-20T04:37:20;3.17;;;0.98;;
13032;SDS011;6583;42.632;23.298;2022-11-20T04:39:46;1.92;;;0.93;;
13032;SDS011;6583;42.632;23.298;2022-11-20T04:42:14;2.42;;;1.00;;
13032;SDS011;6583;42.632;23.298;2022-11-20T04:44:56;1.43;;;0.90;;
13032;SDS011;6583;42.632;23.298;2022-11-20T04:47:23;2.10;;;1.15;;
13032;SDS011;6583;42.632;23.298;2022-11-20T04:49:50;3.45;;;0.90;;
13032;SDS011;6583;42.632;23.298;2022-11-20T04:52:17;1.70;;;1.10;;
13032;SDS011;6583;42.632;23.298;2022-11-20T04:54:44;1.17;;;0.80;;
13032;SDS011;6583;42.632;23.298;2022-11-20T04:57:12;2.03;;;1.02;;
13032;SDS011;6583;42.632;23.298;2022-11-20T04:59:41;2.37;;;0.83;;
13032;SDS011;6583;42.632;23.298;2022-11-20T05:02:08;3.33;;;1.00;;
13032;SDS011;6583;42.632;23.298;2022-11-20T05:04:35;2.88;;;1.10;;
13032;SDS011;6583;42.632;23.298;2022-11-20T05:07:01;1.58;;;0.85;;
13032;SDS011;6583;42.632;23.298;2022-11-20T05:09:29;2.95;;;0.70;;
13032;SDS011;6583;42.632;23.298;2022-11-20T05:11:56;2.33;;;0.90;;
13032;SDS011;6583;42.632;23.298;2022-11-20T05:14:24;3.27;;;0.83;;
13032;SDS011;6583;42.632;23.298;2022-11-20T05:16:50;0.77;;;0.77;;
13032;SDS011;6583;42.632;23.298;2022-11-20T05:19:17;2.92;;;1.20;;
13032;SDS011;6583;42.632;23.298;2022-11-20T05:21:44;3.42;;;1.10;;
13032;SDS011;6583;42.632;23.298;2022-11-20T05:24:10;1.43;;;0.90;;
13032;SDS011;6583;42.632;23.298;2022-11-20T05:26:37;4.70;;;1.20;;
13032;SDS011;6583;42.632;23.298;2022-11-20T05:29:04;1.00;;;0.80;;
13032;SDS011;6583;42.632;23.298;2022-11-20T05:31:32;2.08;;;0.80;;
13032;SDS011;6583;42.632;23.298;2022-11-20T05:33:59;4.63;;;1.40;;
13032;SDS011;6583;42.632;23.298;2022-11-20T05:36:25;1.85;;;1.10;;
13032;SDS011;6583;42.632;23.298;2022-11-20T05:38:52;2.03;;;1.07;;
13032;SDS011;6583;42.632;23.298;2022-11-20T05:41:19;2.27;;;0.90;;
13032;SDS011;6583;42.632;23.298;2022-11-20T05:43:47;2.17;;;1.10;;
13032;SDS011;6583;42.632;23.298;2022-11-20T05:46:15;2.15;;;1.00;;
13032;SDS011;6583;42.632;23.298;2022-11-20T05:48:45;3.03;;;1.10;;
13032;SDS011;6583;42.632;23.298;2022-11-20T05:51:13;2.33;;;1.00;;
13032;SDS011;6583;42.632;23.298;2022-11-20T05:53:41;2.58;;;0.95;;
13032;SDS011;6583;42.632;23.298;2022-11-20T05:56:09;4.03;;;1.20;;
13032;SDS011;6583;42.632;23.298;2022-11-20T05:58:38;3.70;;;1.00;;
13032;SDS011;6583;42.632;23.298;2022-11-20T06:01:05;2.95;;;0.82;;
13032;SDS011;6583;42.632;23.298;2022-11-20T06:03:33;3.97;;;1.00;;
13032;SDS011;6583;42.632;23.298;2022-11-20T06:06:02;2.10;;;0.98;;
13032;SDS011;6583;42.632;23.298;2022-11-20T06:08:31;3.67;;;0.95;;
13032;SDS011;6583;42.632;23.298;2022-11-20T06:10:58;2.13;;;0.80;;
13032;SDS011;6583;42.632;23.298;2022-11-20T06:13:24;2.92;;;1.00;;
13032;SDS011;6583;42.632;23.298;2022-11-20T06:15:52;3.25;;;1.17;;
13032;SDS011;6583;42.632;23.298;2022-11-20T06:18:19;5.80;;;1.23;;
13032;SDS011;6583;42.632;23.298;2022-11-20T06:20:46;2.08;;;0.90;;
13032;SDS011;6583;42.632;23.298;2022-11-20T06:23:14;3.00;;;0.77;;
13032;SDS011;6583;42.632;23.298;2022-11-20T06:25:41;1.48;;;1.00;;
13032;SDS011;6583;42.632;23.298;2022-11-20T06:28:08;1.52;;;0.85;;
13032;SDS011;6583;42.632;23.298;2022-11-20T06:30:35;1.13;;;0.80;;
13032;SDS011;6583;42.632;23.298;2022-11-20T06:33:02;1.00;;;0.80;;
13032;SDS011;6583;42.632;23.298;2022-11-20T06:35:29;1.50;;;0.90;;
13032;SDS011;6583;42.632;23.298;2022-11-20T06:37:55;2.53;;;1.00;;
13032;SDS011;6583;42.632;23.298;2022-11-20T06:40:23;1.27;;;0.80;;
13032;SDS011;6583;42.632;23.298;2022-11-20T06:42:50;2.08;;;0.82;;
13032;SDS011;6583;42.632;23.298;2022-11-20T06:45:17;1.60;;;0.90;;
13032;SDS011;6583;42.632;23.298;2022-11-20T06:47:43;2.60;;;0.82;;
13032;SDS011;6583;42.632;23.298;2022-11-20T06:50:10;1.27;;;0.75;;
13032;SDS011;6583;42.632;23.298;2022-11-20T06:52:37;3.65;;;0.80;;
13032;SDS011;6583;42.632;23.298;2022-11-20T06:55:04;1.65;;;0.70;;
13032;SDS011;6583;42.632;23.298;2022-11-20T06:57:32;1.25;;;0.70;;
13032;SDS011;6583;42.632;23.298;2022-11-20T06:59:59;1.00;;;0.73;;
13032;SDS011;6583;42.632;23.298;2022-11-20T07:02:25;2.55;;;0.80;;
13032;SDS011;6583;42.632;23.298;2022-11-20T07:04:52;1.15;;;0.70;;
13032;SDS011;6583;42.632;23.298;2022-11-20T07:07:19;2.13;;;0.75;;
13032;SDS011;6583;42.632;23.298;2022-11-20T07:09:45;1.98;;;0.90;;
13032;SDS011;6583;42.632;23.298;2022-11-20T07:12:12;1.60;;;0.77;;
13032;SDS011;6583;42.632;23.298;2022-11-20T07:14:40;1.83;;;0.80;;
13032;SDS011;6583;42.632;23.298;2022-11-20T07:17:06;2.75;;;1.00;;
13032;SDS011;6583;42.632;23.298;2022-11-20T07:19:33;1.73;;;0.85;;
13032;SDS011;6583;42.632;23.298;2022-11-20T07:22:00;2.28;;;0.73;;
13032;SDS011;6583;42.632;23.298;2022-11-20T07:24:26;3.28;;;0.90;;
13032;SDS011;6583;42.632;23.298;2022-11-20T07:26:53;1.52;;;0.80;;
13032;SDS011;6583;42.632;23.298;2022-11-20T07:29:20;2.25;;;1.02;;
13032;SDS011;6583;42.632;23.298;2022-11-20T07:31:48;4.45;;;1.10;;
13032;SDS011;6583;42.632;23.298;2022-11-20T07:34:14;2.40;;;0.90;;
13032;SDS011;6583;42.632;23.298;2022-11-20T07:36:41;3.55;;;0.93;;
13032;SDS011;6583;42.632;23.298;2022-11-20T07:39:07;5.00;;;1.05;;
13032;SDS011;6583;42.632;23.298;2022-11-20T07:41:34;3.20;;;0.80;;
13032;SDS011;6583;42.632;23.298;2022-11-20T07:44:01;3.38;;;0.98;;
13032;SDS011;6583;42.632;23.298;2022-11-20T07:46:27;2.90;;;1.05;;
13032;SDS011;6583;42.632;23.298;2022-11-20T07:48:56;5.30;;;1.10;;
13032;SDS011;6583;42.632;23.298;2022-11-20T07:51:22;2.55;;;1.23;;
13032;SDS011;6583;42.632;23.298;2022-11-20T07:53:50;4.07;;;1.15;;
13032;SDS011;6583;42.632;23.298;2022-11-20T07:56:17;3.17;;;1.00;;
13032;SDS011;6583;42.632;23.298;2022-11-20T07:58:44;3.42;;;1.00;;
13032;SDS011;6583;42.632;23.298;2022-11-20T08:01:10;3.45;;;1.30;;
13032;SDS011;6583;42.632;23.298;2022-11-20T08:03:37;4.13;;;1.30;;
13032;SDS011;6583;42.632;23.298;2022-11-20T08:06:05;5.00;;;1.40;;
13032;SDS011;6583;42.632;23.298;2022-11-20T08:08:33;4.85;;;1.20;;
13032;SDS011;6583;42.632;23.298;2022-11-20T08:10:59;4.72;;;1.52;;
13032;SDS011;6583;42.632;23.298;2022-11-20T08:13:40;4.15;;;1.50;;
13032;SDS011;6583;42.632;23.298;2022-11-20T08:16:24;2.95;;;1.23;;
13032;SDS011;6583;42.632;23.298;2022-11-20T08:18:50;4.03;;;1.40;;
13032;SDS011;6583;42.632;23.298;2022-11-20T08:21:18;6.15;;;1.20;;
13032;SDS011;6583;42.632;23.298;2022-11-20T08:23:45;3.70;;;1.30;;
13032;SDS011;6583;42.632;23.298;2022-11-20T08:26:12;5.75;;;1.63;;
13032;SDS011;6583;42.632;23.298;2022-11-20T08:28:38;4.40;;;1.30;;
13032;SDS011;6583;42.632;23.298;2022-11-20T08:31:05;4.50;;;1.15;;
13032;SDS011;6583;42.632;23.298;2022-11-20T08:33:32;4.10;;;1.52;;
13032;SDS011;6583;42.632;23.298;2022-11-20T08:35:59;3.35;;;1.10;;
13032;SDS011;6583;42.632;23.298;2022-11-20T08:38:28;4.40;;;1.55;;
13032;SDS011;6583;42.632;23.298;2022-11-20T08:40:55;7.13;;;1.50;;
13032;SDS011;6583;42.632;23.298;2022-11-20T08:43:40;8.07;;;1.40;;
13032;SDS011;6583;42.632;23.298;2022-11-20T08:46:07;5.05;;;1.50;;
13032;SDS011;6583;42.632;23.298;2022-11-20T08:48:34;4.40;;;1.33;;
13032;SDS011;6583;42.632;23.298;2022-11-20T08:51:00;4.25;;;1.98;;
13032;SDS011;6583;42.632;23.298;2022-11-20T08:53:28;5.55;;;2.38;;
13032;SDS011;6583;42.632;23.298;2022-11-20T08:55:56;7.38;;;3.45;;
13032;SDS011;6583;42.632;23.298;2022-11-20T08:58:23;4.18;;;1.90;;
13032;SDS011;6583;42.632;23.298;2022-11-20T09:00:49;9.50;;;3.40;;
13032;SDS011;6583;42.632;23.298;2022-11-20T09:03:16;6.57;;;2.58;;
13032;SDS011;6583;42.632;23.298;2022-11-20T09:05:43;5.80;;;3.53;;
13032;SDS011;6583;42.632;23.298;2022-11-20T09:08:09;7.03;;;3.60;;
13032;SDS011;6583;42.632;23.298;2022-11-20T09:10:37;4.82;;;2.80;;
13032;SDS011;6583;42.632;23.298;2022-11-20T09:13:05;2.22;;;1.25;;
13032;SDS011;6583;42.632;23.298;2022-11-20T09:15:32;2.13;;;1.37;;
13032;SDS011;6583;42.632;23.298;2022-11-20T09:17:59;4.20;;;1.30;;
13032;SDS011;6583;42.632;23.298;2022-11-20T09:20:28;3.93;;;0.90;;
13032;SDS011;6583;42.632;23.298;2022-11-20T09:22:56;5.40;;;1.40;;
13032;SDS011;6583;42.632;23.298;2022-11-20T09:25:23;3.20;;;1.13;;
13032;SDS011;6583;42.632;23.298;2022-11-20T09:27:55;1.40;;;0.87;;
13032;SDS011;6583;42.632;23.298;2022-11-20T09:30:22;2.57;;;0.57;;
13032;SDS011;6583;42.632;23.298;2022-11-20T09:32:49;6.30;;;0.90;;
13032;SDS011;6583;42.632;23.298;2022-11-20T09:35:16;1.90;;;1.03;;
13032;SDS011;6583;42.632;23.298;2022-11-20T09:37:43;2.80;;;1.07;;
13032;SDS011;6583;42.632;23.298;2022-11-20T09:40:16;3.80;;;1.30;;
13032;SDS011;6583;42.632;23.298;2022-11-20T09:42:47;1.70;;;1.20;;
13032;SDS011;6583;42.632;23.298;2022-11-20T09:45:27;3.80;;;2.60;;
13032;SDS011;6583;42.632;23.298;2022-11-20T09:48:07;3.67;;;2.53;;
13032;SDS011;6583;42.632;23.298;2022-11-20T09:50:45;6.40;;;3.27;;
13032;SDS011;6583;42.632;23.298;2022-11-20T09:53:20;3.03;;;2.73;;
13032;SDS011;6583;42.632;23.298;2022-11-20T09:55:55;5.47;;;2.70;;
13032;SDS011;6583;42.632;23.298;2022-11-20T09:58:25;5.80;;;2.80;;
13032;SDS011;6583;42.632;23.298;2022-11-20T10:00:59;6.37;;;3.17;;
13032;SDS011;6583;42.632;23.298;2022-11-20T10:03:37;9.07;;;3.80;;
13032;SDS011;6583;42.632;23.298;2022-11-20T10:06:11;7.07;;;4.00;;
13032;SDS011;6583;42.632;23.298;2022-11-20T10:08:42;6.00;;;3.53;;
13032;SDS011;6583;42.632;23.298;2022-11-20T10:11:13;6.47;;;4.10;;
13032;SDS011;6583;42.632;23.298;2022-11-20T10:13:50;6.83;;;4.20;;
13032;SDS011;6583;42.632;23.298;2022-11-20T10:16:30;3.93;;;3.07;;
13032;SDS011;6583;42.632;23.298;2022-11-20T10:19:07;8.67;;;4.17;;
13032;SDS011;6583;42.632;23.298;2022-11-20T10:21:51;8.97;;;4.50;;
13032;SDS011;6583;42.632;23.298;2022-11-20T10:24:34;8.43;;;4.10;;
13032;SDS011;6583;42.632;23.298;2022-11-20T10:30:20;7.47;;;4.37;;
13032;SDS011;6583;42.632;23.298;2022-11-20T10:32:51;7.53;;;3.87;;
13032;SDS011;6583;42.632;23.298;2022-11-20T10:35:21;6.27;;;4.33;;
13032;SDS011;6583;42.632;23.298;2022-11-20T10:37:53;10.20;;;4.70;;
13032;SDS011;6583;42.632;23.298;2022-11-20T10:40:27;9.33;;;4.87;;
13032;SDS011;6583;42.632;23.298;2022-11-20T10:42:59;5.33;;;3.67;;
13032;SDS011;6583;42.632;23.298;2022-11-20T10:45:36;4.67;;;3.37;;
13032;SDS011;6583;42.632;23.298;2022-11-20T10:48:14;6.83;;;4.03;;
13032;SDS011;6583;42.632;23.298;2022-11-20T10:53:40;8.85;;;4.00;;
13032;SDS011;6583;42.632;23.298;2022-11-20T10:56:16;6.75;;;4.53;;
13032;SDS011;6583;42.632;23.298;2022-11-20T10:58:49;5.00;;;3.93;;
13032;SDS011;6583;42.632;23.298;2022-11-20T11:01:39;7.93;;;4.05;;
13032;SDS011;6583;42.632;23.298;2022-11-20T11:04:08;6.90;;;4.47;;
13032;SDS011;6583;42.632;23.298;2022-11-20T11:06:48;6.90;;;4.33;;
13032;SDS011;6583;42.632;23.298;2022-11-20T11:09:16;10.03;;;4.60;;
13032;SDS011;6583;42.632;23.298;2022-11-20T11:11:46;11.23;;;5.97;;
13032;SDS011;6583;42.632;23.298;2022-11-20T11:14:13;8.37;;;5.43;;
13032;SDS011;6583;42.632;23.298;2022-11-20T11:16:48;8.53;;;4.37;;
13032;SDS011;6583;42.632;23.298;2022-11-20T11:19:18;6.60;;;2.70;;
13032;SDS011;6583;42.632;23.298;2022-11-20T11:21:46;4.17;;;1.20;;
13032;SDS011;6583;42.632;23.298;2022-11-20T11:24:19;4.03;;;1.00;;
13032;SDS011;6583;42.632;23.298;2022-11-20T11:26:52;1.43;;;0.60;;
13032;SDS011;6583;42.632;23.298;2022-11-20T11:29:21;2.50;;;0.70;;
13032;SDS011;6583;42.632;23.298;2022-11-20T11:31:48;2.10;;;0.63;;
13032;SDS011;6583;42.632;23.298;2022-11-20T11:34:16;1.87;;;0.50;;
13032;SDS011;6583;42.632;23.298;2022-11-20T11:36:49;1.23;;;0.83;;
13032;SDS011;6583;42.632;23.298;2022-11-20T11:39:20;1.17;;;0.60;;
13032;SDS011;6583;42.632;23.298;2022-11-20T11:41:47;1.70;;;0.67;;
13032;SDS011;6583;42.632;23.298;2022-11-20T11:44:15;2.03;;;0.90;;
13032;SDS011;6583;42.632;23.298;2022-11-20T11:47:02;2.47;;;1.00;;
13032;SDS011;6583;42.632;23.298;2022-11-20T11:49:32;2.00;;;0.87;;
13032;SDS011;6583;42.632;23.298;2022-11-20T11:52:01;5.27;;;1.10;;
13032;SDS011;6583;42.632;23.298;2022-11-20T11:54:34;2.43;;;1.00;;
13032;SDS011;6583;42.632;23.298;2022-11-20T11:57:05;3.60;;;1.20;;
13032;SDS011;6583;42.632;23.298;2022-11-20T11:59:41;3.77;;;1.20;;
13032;SDS011;6583;42.632;23.298;2022-11-20T12:02:22;1.27;;;0.70;;
13032;SDS011;6583;42.632;23.298;2022-11-20T12:04:58;1.23;;;0.67;;
13032;SDS011;6583;42.632;23.298;2022-11-20T12:07:33;1.40;;;0.70;;
13032;SDS011;6583;42.632;23.298;2022-11-20T12:10:07;1.13;;;0.70;;
13032;SDS011;6583;42.632;23.298;2022-11-20T12:12:44;1.53;;;0.70;;
13032;SDS011;6583;42.632;23.298;2022-11-20T12:15:16;0.93;;;0.50;;
13032;SDS011;6583;42.632;23.298;2022-11-20T12:17:51;1.17;;;0.60;;
13032;SDS011;6583;42.632;23.298;2022-11-20T12:20:19;1.60;;;0.70;;
13032;SDS011;6583;42.632;23.298;2022-11-20T12:22:52;1.77;;;0.60;;
13032;SDS011;6583;42.632;23.298;2022-11-20T12:25:28;4.43;;;1.10;;
13032;SDS011;6583;42.632;23.298;2022-11-20T12:28:12;2.77;;;0.90;;
13032;SDS011;6583;42.632;23.298;2022-11-20T12:31:00;2.63;;;0.60;;
13032;SDS011;6583;42.632;23.298;2022-11-20T12:33:50;1.37;;;0.50;;
13032;SDS011;6583;42.632;23.298;2022-11-20T12:36:30;1.80;;;0.57;;
13032;SDS011;6583;42.632;23.298;2022-11-20T12:39:12;2.23;;;0.60;;
13032;SDS011;6583;42.632;23.298;2022-11-20T12:42:09;1.57;;;0.80;;
13032;SDS011;6583;42.632;23.298;2022-11-20T12:45:23;1.27;;;0.80;;
13032;SDS011;6583;42.632;23.298;2022-11-20T12:48:14;3.67;;;1.00;;
13032;SDS011;6583;42.632;23.298;2022-11-20T12:51:00;3.03;;;0.93;;
13032;SDS011;6583;42.632;23.298;2022-11-20T12:53:39;2.70;;;0.90;;
13032;SDS011;6583;42.632;23.298;2022-11-20T12:56:14;1.63;;;0.70;;
13032;SDS011;6583;42.632;23.298;2022-11-20T12:58:49;3.37;;;0.90;;
13032;SDS011;6583;42.632;23.298;2022-11-20T13:01:30;2.77;;;0.83;;
13032;SDS011;6583;42.632;23.298;2022-11-20T13:04:16;1.97;;;1.00;;
13032;SDS011;6583;42.632;23.298;2022-11-20T13:06:58;4.63;;;1.47;;
13032;SDS011;6583;42.632;23.298;2022-11-20T13:09:28;3.70;;;1.00;;
13032;SDS011;6583;42.632;23.298;2022-11-20T13:12:00;4.00;;;2.10;;
13032;SDS011;6583;42.632;23.298;2022-11-20T13:14:32;5.40;;;1.97;;
13032;SDS011;6583;42.632;23.298;2022-11-20T13:17:04;3.37;;;2.10;;
13032;SDS011;6583;42.632;23.298;2022-11-20T13:19:36;4.03;;;2.23;;
13032;SDS011;6583;42.632;23.298;2022-11-20T13:22:04;3.20;;;2.10;;
13032;SDS011;6583;42.632;23.298;2022-11-20T13:24:32;5.60;;;2.33;;
13032;SDS011;6583;42.632;23.298;2022-11-20T13:27:02;5.10;;;2.07;;
13032;SDS011;6583;42.632;23.298;2022-11-20T13:29:31;5.27;;;2.17;;
13032;SDS011;6583;42.632;23.298;2022-11-20T13:32:04;5.60;;;2.20;;
13032;SDS011;6583;42.632;23.298;2022-11-20T13:34:33;7.83;;;2.53;;
13032;SDS011;6583;42.632;23.298;2022-11-20T13:37:00;4.67;;;2.53;;
13032;SDS011;6583;42.632;23.298;2022-11-20T13:39:29;5.03;;;2.43;;
13032;SDS011;6583;42.632;23.298;2022-11-20T13:41:59;4.37;;;2.53;;
13032;SDS011;6583;42.632;23.298;2022-11-20T13:44:29;8.03;;;3.20;;
13032;SDS011;6583;42.632;23.298;2022-11-20T13:47:00;7.77;;;5.30;;
13032;SDS011;6583;42.632;23.298;2022-11-20T13:49:29;10.83;;;5.93;;
13032;SDS011;6583;42.632;23.298;2022-11-20T13:52:02;12.60;;;8.07;;
13032;SDS011;6583;42.632;23.298;2022-11-20T13:54:51;11.10;;;7.30;;
13032;SDS011;6583;42.632;23.298;2022-11-20T13:57:31;9.10;;;5.07;;
13032;SDS011;6583;42.632;23.298;2022-11-20T14:00:09;10.17;;;6.93;;
13032;SDS011;6583;42.632;23.298;2022-11-20T14:02:38;10.87;;;5.97;;
13032;SDS011;6583;42.632;23.298;2022-11-20T14:05:11;8.93;;;5.00;;
13032;SDS011;6583;42.632;23.298;2022-11-20T14:07:45;9.60;;;4.20;;
13032;SDS011;6583;42.632;23.298;2022-11-20T14:10:20;9.67;;;4.57;;
13032;SDS011;6583;42.632;23.298;2022-11-20T14:12:49;8.63;;;5.43;;
13032;SDS011;6583;42.632;23.298;2022-11-20T14:15:24;8.10;;;5.73;;
13032;SDS011;6583;42.632;23.298;2022-11-20T14:17:52;8.23;;;6.00;;
13032;SDS011;6583;42.632;23.298;2022-11-20T14:20:19;9.80;;;7.50;;
13032;SDS011;6583;42.632;23.298;2022-11-20T14:22:48;13.83;;;8.83;;
13032;SDS011;6583;42.632;23.298;2022-11-20T14:25:21;7.67;;;5.63;;
13032;SDS011;6583;42.632;23.298;2022-11-20T14:27:52;15.43;;;6.70;;
13032;SDS011;6583;42.632;23.298;2022-11-20T14:30:20;11.13;;;5.73;;
13032;SDS011;6583;42.632;23.298;2022-11-20T14:32:49;9.20;;;4.90;;
13032;SDS011;6583;42.632;23.298;2022-11-20T14:35:17;10.83;;;4.93;;
13032;SDS011;6583;42.632;23.298;2022-11-20T14:37:47;9.80;;;4.43;;
13032;SDS011;6583;42.632;23.298;2022-11-20T14:40:26;10.43;;;6.70;;
13032;SDS011;6583;42.632;23.298;2022-11-20T14:42:55;8.10;;;4.80;;
13032;SDS011;6583;42.632;23.298;2022-11-20T14:45:22;11.80;;;5.90;;
13032;SDS011;6583;42.632;23.298;2022-11-20T14:47:50;9.87;;;4.53;;
13032;SDS011;6583;42.632;23.298;2022-11-20T14:50:19;12.87;;;5.10;;
13032;SDS011;6583;42.632;23.298;2022-11-20T14:52:52;6.90;;;4.37;;
13032;SDS011;6583;42.632;23.298;2022-11-20T14:55:29;4.80;;;4.07;;
13032;SDS011;6583;42.632;23.298;2022-11-20T14:57:57;6.20;;;3.43;;
13032;SDS011;6583;42.632;23.298;2022-11-20T15:00:25;3.83;;;3.07;;
13032;SDS011;6583;42.632;23.298;2022-11-20T15:02:52;6.07;;;4.10;;
13032;SDS011;6583;42.632;23.298;2022-11-20T15:05:21;4.63;;;3.83;;
13032;SDS011;6583;42.632;23.298;2022-11-20T15:07:50;3.40;;;3.10;;
13032;SDS011;6583;42.632;23.298;2022-11-20T15:10:22;7.07;;;3.10;;